Time;durP1;ratioP1;P1;durP2;ratioP2;P2;SDS_P1;SDS_P2;PMS_P1;PMS_P2;Temp;Humidity;BMP_temperature;BMP_pressure;BME280_temperature;BME280_humidity;BME280_pressure;Samples;Min_cycle;Max_cycle;Signal;HPM_P1;HPM_P2
2023/01/23 00:00:58;;;;;;;30.07;21.67;;;;;;;;;;4977820;28;20178;-79
2023/01/23 00:03:24;;;;;;;38.67;21.33;;;;;;;;;;4977183;28;20177;-90
2023/01/23 00:06:00;;;;;;;33.80;21.67;;;;;;;;;;4961575;28;20200;-89
2023/01/23 00:08:26;;;;;;;34.57;20.73;;;;;;;;;;4977766;28;20182;-89
2023/01/23 00:10:52;;;;;;;37.07;21.53;;;;;;;;;;4961442;28;20309;-89
2023/01/23 00:13:19;;;;;;;37.33;21.73;;;;;;;;;;4976733;28;20186;-89
2023/01/23 00:15:46;;;;;;;39.47;22.13;;;;;;;;;;4977345;28;20233;-90
2023/01/23 00:18:12;;;;;;;37.10;22.27;;;;;;;;;;4977451;28;20316;-90
2023/01/23 00:20:38;;;;;;;33.73;21.60;;;;;;;;;;4969882;28;20231;-82
2023/01/23 00:23:04;;;;;;;38.13;22.37;;;;;;;;;;4958283;28;20253;-81
2023/01/23 00:25:30;;;;;;;40.60;22.07;;;;;;;;;;4942053;28;20191;-82
2023/01/23 00:27:56;;;;;;;38.63;22.83;;;;;;;;;;4989707;28;20196;-82
2023/01/23 00:30:22;;;;;;;41.30;22.90;;;;;;;;;;4994467;28;20246;-81
2023/01/23 00:32:48;;;;;;;42.10;23.33;;;;;;;;;;4961506;28;20182;-81
2023/01/23 00:35:14;;;;;;;32.97;22.27;;;;;;;;;;4961521;28;20281;-82
2023/01/23 00:37:41;;;;;;;39.50;21.80;;;;;;;;;;4965053;28;20221;-81
2023/01/23 00:40:08;;;;;;;40.73;22.33;;;;;;;;;;4942518;28;20237;-81
2023/01/23 00:42:34;;;;;;;33.20;22.00;;;;;;;;;;4957860;28;20179;-81
2023/01/23 00:45:00;;;;;;;33.77;22.07;;;;;;;;;;4975128;28;20179;-81
2023/01/23 00:47:26;;;;;;;33.67;22.03;;;;;;;;;;4976698;28;20182;-81
2023/01/23 00:49:56;;;;;;;38.47;22.87;;;;;;;;;;4950803;28;20253;-81
2023/01/23 00:52:22;;;;;;;33.73;22.13;;;;;;;;;;4964770;28;20251;-88
2023/01/23 00:54:48;;;;;;;36.33;23.43;;;;;;;;;;4966766;28;20197;-89
2023/01/23 00:57:14;;;;;;;44.13;28.92;;;;;;;;;;4960697;28;20425;-89
2023/01/23 00:59:40;;;;;;;37.20;24.43;;;;;;;;;;4948213;28;20186;-89
2023/01/23 01:02:06;;;;;;;37.60;23.97;;;;;;;;;;4976724;28;20179;-88
2023/01/23 01:04:32;;;;;;;39.90;23.97;;;;;;;;;;4963802;28;20194;-90
2023/01/23 01:06:58;;;;;;;39.53;24.63;;;;;;;;;;4997690;28;20305;-89
2023/01/23 01:09:24;;;;;;;38.67;24.13;;;;;;;;;;4964489;28;20189;-82
2023/01/23 01:11:51;;;;;;;40.33;23.47;;;;;;;;;;4961544;28;20234;-82
2023/01/23 01:14:17;;;;;;;37.77;24.20;;;;;;;;;;4980483;28;20178;-81
2023/01/23 01:16:45;;;;;;;42.27;24.40;;;;;;;;;;4956734;28;20197;-82
2023/01/23 01:19:15;;;;;;;35.13;22.93;;;;;;;;;;4975770;28;20226;-82
2023/01/23 01:21:41;;;;;;;38.07;24.07;;;;;;;;;;4972134;28;20193;-82
2023/01/23 01:24:08;;;;;;;40.90;24.63;;;;;;;;;;4980154;28;20178;-82
2023/01/23 01:26:34;;;;;;;36.03;23.73;;;;;;;;;;4978817;28;20193;-90
2023/01/23 01:29:00;;;;;;;42.37;31.10;;;;;;;;;;4944428;28;20422;-89
2023/01/23 01:31:26;;;;;;;38.43;25.23;;;;;;;;;;4971046;28;20472;-89
2023/01/23 01:33:52;;;;;;;40.93;26.07;;;;;;;;;;4967075;28;20261;-89
2023/01/23 01:36:19;;;;;;;49.80;32.93;;;;;;;;;;4967652;28;20417;-89
2023/01/23 01:38:45;;;;;;;47.95;31.67;;;;;;;;;;4963726;28;20424;-89
2023/01/23 01:41:13;;;;;;;39.90;25.43;;;;;;;;;;4997219;28;20192;-89
2023/01/23 01:43:39;;;;;;;39.87;24.33;;;;;;;;;;4964935;28;20205;-79
2023/01/23 01:46:08;;;;;;;46.17;32.35;;;;;;;;;;4956070;28;20433;-89
2023/01/23 01:48:42;;;;;;;47.17;32.13;;;;;;;;;;4959532;28;20426;-89
2023/01/23 01:51:12;;;;;;;42.77;26.43;;;;;;;;;;4991608;28;20201;-89
2023/01/23 01:53:39;;;;;;;40.77;25.90;;;;;;;;;;4978315;28;20217;-88
2023/01/23 01:56:07;;;;;;;38.80;24.07;;;;;;;;;;4960484;28;20175;-89
2023/01/23 01:58:33;;;;;;;38.13;25.20;;;;;;;;;;4969228;28;20228;-90
2023/01/23 02:00:59;;;;;;;42.43;25.33;;;;;;;;;;4963466;28;20186;-82
2023/01/23 02:03:25;;;;;;;52.70;33.35;;;;;;;;;;4962032;28;20428;-82
2023/01/23 02:05:51;;;;;;;47.90;31.10;;;;;;;;;;4978785;28;20468;-82
2023/01/23 02:08:30;;;;;;;37.87;25.17;;;;;;;;;;4973571;28;20252;-82
2023/01/23 02:11:00;;;;;;;38.40;24.97;;;;;;;;;;4976979;28;20257;-82
2023/01/23 02:13:29;;;;;;;49.22;31.70;;;;;;;;;;4964584;28;20475;-82
2023/01/23 02:15:55;;;;;;;46.88;33.63;;;;;;;;;;4995664;28;20415;-90
2023/01/23 02:18:22;;;;;;;50.97;33.83;;;;;;;;;;4959710;28;20414;-89
2023/01/23 02:20:50;;;;;;;43.77;26.20;;;;;;;;;;4959675;28;20259;-89
2023/01/23 02:23:24;;;;;;;45.83;31.08;;;;;;;;;;4959219;28;20512;-89
2023/01/23 02:25:55;;;;;;;39.77;26.97;;;;;;;;;;4959911;28;20182;-90
2023/01/23 02:28:21;;;;;;;49.08;32.42;;;;;;;;;;4958890;28;20437;-89
2023/01/23 02:30:49;;;;;;;38.43;25.80;;;;;;;;;;4976666;28;20212;-89
2023/01/23 02:33:21;;;;;;;42.23;24.70;;;;;;;;;;4959855;28;20175;-89
2023/01/23 02:35:48;;;;;;;41.13;25.03;;;;;;;;;;4976660;28;20182;-90
2023/01/23 02:38:14;;;;;;;36.70;23.57;;;;;;;;;;4976789;28;20175;-89
2023/01/23 02:40:41;;;;;;;42.72;28.13;;;;;;;;;;4943357;28;20455;-90
2023/01/23 02:43:10;;;;;;;38.77;26.20;;;;;;;;;;4976587;28;20253;-89
2023/01/23 02:45:37;;;;;;;39.50;25.40;;;;;;;;;;4959152;28;20182;-89
2023/01/23 02:48:04;;;;;;;37.60;24.73;;;;;;;;;;4959863;28;20270;-89
2023/01/23 02:50:31;;;;;;;35.80;24.27;;;;;;;;;;4943746;28;20305;-89
2023/01/23 02:52:57;;;;;;;43.42;30.60;;;;;;;;;;4958473;28;20469;-89
2023/01/23 02:55:25;;;;;;;38.27;26.27;;;;;;;;;;4959162;28;20282;-89
2023/01/23 02:57:51;;;;;;;43.83;28.38;;;;;;;;;;4963493;28;20426;-89
2023/01/23 03:00:21;;;;;;;47.08;32.20;;;;;;;;;;4942437;28;20425;-89
2023/01/23 03:02:48;;;;;;;36.00;25.57;;;;;;;;;;4958873;28;20270;-88
2023/01/23 03:05:14;;;;;;;39.67;24.47;;;;;;;;;;4962433;28;20182;-89
2023/01/23 03:07:41;;;;;;;46.75;30.65;;;;;;;;;;4972631;28;20423;-82
2023/01/23 03:10:08;;;;;;;42.60;26.33;;;;;;;;;;4960906;28;20190;-81
2023/01/23 03:12:34;;;;;;;41.87;24.50;;;;;;;;;;4977527;28;20174;-82
2023/01/23 03:15:01;;;;;;;36.30;24.70;;;;;;;;;;4974380;28;20185;-82
2023/01/23 03:17:27;;;;;;;36.87;24.53;;;;;;;;;;4977993;28;20180;-81
2023/01/23 03:19:56;;;;;;;39.83;24.17;;;;;;;;;;4976989;28;20272;-82
2023/01/23 03:22:22;;;;;;;37.47;24.37;;;;;;;;;;4978540;28;20249;-87
2023/01/23 03:24:48;;;;;;;42.73;24.87;;;;;;;;;;4977874;28;20213;-90
2023/01/23 03:27:14;;;;;;;41.77;25.77;;;;;;;;;;4978372;28;20209;-90
2023/01/23 03:32:25;;;;;;;40.73;24.77;;;;;;;;;;4980977;28;20184;-89
2023/01/23 03:34:51;;;;;;;37.43;25.60;;;;;;;;;;4961774;28;20198;-89
2023/01/23 03:37:18;;;;;;;40.77;24.83;;;;;;;;;;4995611;28;20166;-89
2023/01/23 03:42:32;;;;;;;38.70;24.73;;;;;;;;;;4988162;28;20274;-89
2023/01/23 03:44:58;;;;;;;40.13;24.00;;;;;;;;;;4959514;28;20210;-89
2023/01/23 03:47:25;;;;;;;37.87;23.83;;;;;;;;;;4959973;28;20255;-89
2023/01/23 03:49:51;;;;;;;39.03;24.27;;;;;;;;;;4951496;28;20182;-89
2023/01/23 03:52:17;;;;;;;41.03;25.40;;;;;;;;;;4962043;28;20240;-89
2023/01/23 03:54:43;;;;;;;38.70;24.40;;;;;;;;;;4979446;28;20270;-89
2023/01/23 03:57:10;;;;;;;38.43;24.07;;;;;;;;;;4978624;28;20234;-82
2023/01/23 03:59:36;;;;;;;43.87;25.27;;;;;;;;;;4964979;28;20183;-82
2023/01/23 04:02:03;;;;;;;41.87;24.73;;;;;;;;;;4953376;28;20194;-82
2023/01/23 04:04:30;;;;;;;34.37;24.77;;;;;;;;;;4958476;28;20178;-82
2023/01/23 04:06:56;;;;;;;37.23;24.70;;;;;;;;;;4973562;28;20193;-82
2023/01/23 04:09:26;;;;;;;40.17;24.57;;;;;;;;;;4958105;28;20195;-82
2023/01/23 04:11:53;;;;;;;36.10;24.37;;;;;;;;;;4958294;28;20273;-82
2023/01/23 04:14:19;;;;;;;37.20;24.43;;;;;;;;;;4975452;28;20179;-82
2023/01/23 04:16:45;;;;;;;39.23;24.83;;;;;;;;;;4946735;28;20281;-82
2023/01/23 04:19:11;;;;;;;35.87;23.70;;;;;;;;;;4941889;28;20269;-82
2023/01/23 04:21:37;;;;;;;36.60;23.90;;;;;;;;;;4957029;28;20208;-81
2023/01/23 04:24:03;;;;;;;37.50;23.33;;;;;;;;;;4960780;28;20178;-82
2023/01/23 04:26:29;;;;;;;36.23;24.13;;;;;;;;;;4957723;28;20194;-82
2023/01/23 04:28:55;;;;;;;30.60;22.77;;;;;;;;;;4947927;28;20214;-82
2023/01/23 04:31:21;;;;;;;38.47;24.47;;;;;;;;;;4963631;28;20222;-79
2023/01/23 04:33:47;;;;;;;38.33;24.37;;;;;;;;;;4980751;28;20185;-80
2023/01/23 04:36:13;;;;;;;37.73;24.90;;;;;;;;;;4968303;28;20211;-79
2023/01/23 04:38:39;;;;;;;38.23;24.30;;;;;;;;;;4945631;28;20197;-79
2023/01/23 04:41:05;;;;;;;38.90;23.70;;;;;;;;;;4953351;28;20187;-79
2023/01/23 04:43:31;;;;;;;39.17;24.27;;;;;;;;;;4945824;28;20194;-79
2023/01/23 04:45:57;;;;;;;38.87;24.57;;;;;;;;;;4957987;28;20195;-82
2023/01/23 04:48:24;;;;;;;39.97;24.77;;;;;;;;;;4961474;28;20186;-82
2023/01/23 04:50:50;;;;;;;38.80;24.50;;;;;;;;;;4961380;28;20265;-81
2023/01/23 04:53:16;;;;;;;38.03;23.87;;;;;;;;;;4978613;28;20218;-81
2023/01/23 04:55:42;;;;;;;33.33;23.73;;;;;;;;;;4977897;28;20183;-82
2023/01/23 04:58:12;;;;;;;37.50;23.97;;;;;;;;;;4961359;28;20187;-81
2023/01/23 05:00:38;;;;;;;36.90;23.13;;;;;;;;;;4978276;28;20186;-82
2023/01/23 05:03:04;;;;;;;38.63;23.70;;;;;;;;;;4961991;28;20194;-89
2023/01/23 05:05:31;;;;;;;36.90;23.83;;;;;;;;;;4948506;28;20198;-89
2023/01/23 05:07:57;;;;;;;34.60;24.70;;;;;;;;;;4981252;28;20213;-90
2023/01/23 05:10:23;;;;;;;33.87;23.37;;;;;;;;;;4997736;28;20252;-90
2023/01/23 05:12:49;;;;;;;33.00;24.00;;;;;;;;;;4964490;28;20193;-89
2023/01/23 05:15:16;;;;;;;38.97;24.80;;;;;;;;;;4980204;28;20269;-89
2023/01/23 05:17:42;;;;;;;40.27;23.87;;;;;;;;;;4964257;28;20185;-89
2023/01/23 05:20:08;;;;;;;35.47;23.50;;;;;;;;;;4997394;28;20225;-82
2023/01/23 05:22:34;;;;;;;35.43;22.40;;;;;;;;;;4979952;28;20193;-82
2023/01/23 05:25:00;;;;;;;30.60;23.30;;;;;;;;;;4964043;28;20186;-82
2023/01/23 05:27:26;;;;;;;33.30;23.77;;;;;;;;;;4960629;28;20190;-82
2023/01/23 05:29:52;;;;;;;34.50;23.37;;;;;;;;;;4960681;28;20207;-82
2023/01/23 05:32:18;;;;;;;35.13;23.87;;;;;;;;;;4960531;28;20241;-82
2023/01/23 05:34:44;;;;;;;34.47;23.77;;;;;;;;;;4960372;28;20278;-82
2023/01/23 05:37:10;;;;;;;35.17;24.67;;;;;;;;;;4944573;28;20182;-79
2023/01/23 05:39:36;;;;;;;39.77;29.57;;;;;;;;;;4959514;28;20509;-79
2023/01/23 05:42:03;;;;;;;37.00;25.10;;;;;;;;;;4943390;28;20351;-79
2023/01/23 05:44:29;;;;;;;35.73;24.80;;;;;;;;;;4976640;28;20197;-79
2023/01/23 05:46:55;;;;;;;33.20;23.77;;;;;;;;;;4987857;28;20254;-79
2023/01/23 05:49:21;;;;;;;34.20;22.80;;;;;;;;;;4960168;28;20182;-79
2023/01/23 05:51:47;;;;;;;35.37;23.87;;;;;;;;;;4946717;28;20276;-79
2023/01/23 05:54:13;;;;;;;33.97;23.23;;;;;;;;;;4959694;28;20198;-82
2023/01/23 05:56:39;;;;;;;35.00;23.73;;;;;;;;;;4953376;28;20214;-82
2023/01/23 05:59:05;;;;;;;34.63;23.43;;;;;;;;;;4969405;28;20195;-82
2023/01/23 06:01:31;;;;;;;38.80;23.47;;;;;;;;;;4943987;28;20190;-82
2023/01/23 06:03:57;;;;;;;37.57;24.20;;;;;;;;;;4944386;28;20186;-81
2023/01/23 06:06:23;;;;;;;39.07;24.03;;;;;;;;;;4945394;28;20237;-89
2023/01/23 06:08:49;;;;;;;35.63;24.87;;;;;;;;;;4945057;28;20273;-79
2023/01/23 06:11:15;;;;;;;36.40;23.60;;;;;;;;;;4943649;28;20218;-82
2023/01/23 06:13:41;;;;;;;33.77;23.20;;;;;;;;;;4943679;28;20197;-82
2023/01/23 06:16:08;;;;;;;36.13;23.80;;;;;;;;;;4943855;28;20237;-82
2023/01/23 06:18:34;;;;;;;37.40;26.07;;;;;;;;;;4943498;28;20187;-81
2023/01/23 06:21:00;;;;;;;41.53;25.33;;;;;;;;;;4976461;28;20230;-82
2023/01/23 06:23:27;;;;;;;40.40;24.37;;;;;;;;;;4959240;28;20269;-81
2023/01/23 06:25:53;;;;;;;36.73;25.13;;;;;;;;;;4959331;28;20182;-82
2023/01/23 06:28:19;;;;;;;37.67;25.97;;;;;;;;;;4959318;28;20190;-82
2023/01/23 06:30:45;;;;;;;39.67;25.07;;;;;;;;;;4943322;28;20211;-82
2023/01/23 06:33:11;;;;;;;35.27;26.00;;;;;;;;;;4959164;28;20174;-82
2023/01/23 06:35:37;;;;;;;36.83;24.63;;;;;;;;;;4959305;28;20202;-82
2023/01/23 06:38:03;;;;;;;38.20;25.27;;;;;;;;;;4959003;28;20181;-81
2023/01/23 06:40:29;;;;;;;38.60;24.07;;;;;;;;;;4959009;28;20183;-82
2023/01/23 06:42:55;;;;;;;36.13;24.87;;;;;;;;;;4943344;28;20198;-82
2023/01/23 06:45:21;;;;;;;39.10;26.23;;;;;;;;;;4959036;28;20187;-82
2023/01/23 06:47:47;;;;;;;35.07;25.30;;;;;;;;;;4958898;28;20182;-82
2023/01/23 06:50:13;;;;;;;43.60;25.93;;;;;;;;;;4976033;28;20167;-82
2023/01/23 06:52:39;;;;;;;39.73;25.47;;;;;;;;;;4960763;28;20174;-82
2023/01/23 06:55:05;;;;;;;32.40;24.57;;;;;;;;;;4962130;28;20185;-82
2023/01/23 06:57:31;;;;;;;42.83;26.37;;;;;;;;;;4978032;28;20188;-82
2023/01/23 06:59:58;;;;;;;41.90;25.60;;;;;;;;;;4962235;28;20185;-82
2023/01/23 07:02:24;;;;;;;40.00;25.77;;;;;;;;;;4977870;28;20189;-82
2023/01/23 07:04:50;;;;;;;38.40;26.03;;;;;;;;;;4995185;28;20201;-82
2023/01/23 07:07:16;;;;;;;34.13;24.90;;;;;;;;;;4978140;28;20182;-82
2023/01/23 07:09:42;;;;;;;35.17;26.40;;;;;;;;;;4978105;28;20208;-81
2023/01/23 07:12:08;;;;;;;35.13;25.97;;;;;;;;;;4994840;28;20252;-82
2023/01/23 07:14:34;;;;;;;38.73;26.63;;;;;;;;;;4977914;28;20178;-81
2023/01/23 07:17:01;;;;;;;36.53;25.93;;;;;;;;;;4961576;28;20269;-82
2023/01/23 07:19:27;;;;;;;38.00;26.57;;;;;;;;;;4961780;28;20307;-82
2023/01/23 07:21:53;;;;;;;35.93;25.70;;;;;;;;;;4977670;28;20193;-82
2023/01/23 07:24:19;;;;;;;35.83;25.33;;;;;;;;;;4961583;28;20332;-82
2023/01/23 07:26:45;;;;;;;34.40;24.57;;;;;;;;;;4961634;28;20198;-82
2023/01/23 07:29:11;;;;;;;35.03;25.13;;;;;;;;;;4961337;28;20189;-82
2023/01/23 07:31:37;;;;;;;36.20;23.93;;;;;;;;;;4977314;28;20216;-82
2023/01/23 07:34:03;;;;;;;37.17;25.00;;;;;;;;;;4961721;28;20182;-82
2023/01/23 07:36:29;;;;;;;36.97;25.70;;;;;;;;;;4977468;28;20181;-82
2023/01/23 07:38:57;;;;;;;31.67;23.73;;;;;;;;;;4961355;28;20197;-82
2023/01/23 07:41:23;;;;;;;34.77;24.20;;;;;;;;;;4994552;28;20257;-82
2023/01/23 07:43:49;;;;;;;39.93;26.10;;;;;;;;;;4977203;28;20233;-82
2023/01/23 07:46:15;;;;;;;40.30;31.55;;;;;;;;;;4960342;28;20409;-82
2023/01/23 07:48:41;;;;;;;35.30;25.70;;;;;;;;;;4956915;28;20178;-82
2023/01/23 07:51:07;;;;;;;35.33;24.50;;;;;;;;;;4970114;28;20214;-90
2023/01/23 07:53:34;;;;;;;36.20;23.97;;;;;;;;;;4958215;28;20194;-89
2023/01/23 07:56:03;;;;;;;36.20;23.63;;;;;;;;;;4964492;28;20210;-89
2023/01/23 07:58:29;;;;;;;32.40;23.90;;;;;;;;;;4959518;28;20206;-89
2023/01/23 08:00:55;;;;;;;35.17;25.23;;;;;;;;;;4958865;28;20198;-89
2023/01/23 08:03:21;;;;;;;31.87;23.47;;;;;;;;;;4958713;28;20220;-89
2023/01/23 08:05:50;;;;;;;32.60;23.97;;;;;;;;;;4977579;28;20189;-90
2023/01/23 08:08:16;;;;;;;32.57;24.10;;;;;;;;;;4962523;28;20193;-90
2023/01/23 08:10:42;;;;;;;35.27;24.13;;;;;;;;;;4962557;28;20210;-89
2023/01/23 08:13:08;;;;;;;34.40;24.53;;;;;;;;;;4962888;28;20193;-90
2023/01/23 08:15:36;;;;;;;31.20;22.90;;;;;;;;;;4962398;28;20277;-89
2023/01/23 08:18:02;;;;;;;30.63;22.90;;;;;;;;;;4982955;28;20189;-90
2023/01/23 08:20:28;;;;;;;36.23;24.17;;;;;;;;;;4965387;28;20241;-89
2023/01/23 08:22:55;;;;;;;31.40;22.10;;;;;;;;;;4965491;28;20182;-79
2023/01/23 08:25:21;;;;;;;30.83;23.17;;;;;;;;;;4964878;28;20214;-79
2023/01/23 08:27:47;;;;;;;32.97;23.60;;;;;;;;;;4980755;28;20213;-79
2023/01/23 08:30:13;;;;;;;33.70;24.00;;;;;;;;;;4964017;28;20245;-79
2023/01/23 08:32:39;;;;;;;37.38;30.10;;;;;;;;;;4978476;28;20415;-79
2023/01/23 08:35:05;;;;;;;33.57;26.60;;;;;;;;;;4964126;28;20182;-79
2023/01/23 08:37:33;;;;;;;37.57;24.77;;;;;;;;;;4964571;28;20182;-79
2023/01/23 08:39:59;;;;;;;37.13;29.73;;;;;;;;;;4963058;28;20421;-81
2023/01/23 08:42:25;;;;;;;36.87;25.40;;;;;;;;;;4964380;28;20193;-82
2023/01/23 08:44:51;;;;;;;36.10;24.98;;;;;;;;;;4980445;28;20408;-81
2023/01/23 08:47:17;;;;;;;35.10;27.65;;;;;;;;;;4964237;28;20467;-81
2023/01/23 08:49:43;;;;;;;37.55;30.48;;;;;;;;;;4976705;23;20456;-85
2023/01/23 08:52:09;;;;;;;37.97;30.73;;;;;;;;;;4979584;28;20437;-86
2023/01/23 08:54:35;;;;;;;34.07;25.30;;;;;;;;;;4964262;28;20194;-86
2023/01/23 08:57:01;;;;;;;33.33;24.80;;;;;;;;;;4964399;28;20229;-83
2023/01/23 08:59:28;;;;;;;32.07;23.10;;;;;;;;;;4980211;28;20182;-86
2023/01/23 09:01:54;;;;;;;32.50;22.73;;;;;;;;;;4980363;28;20178;-86
2023/01/23 09:04:20;;;;;;;32.40;22.70;;;;;;;;;;4964155;28;20253;-86
2023/01/23 09:06:46;;;;;;;39.00;28.90;;;;;;;;;;4963688;28;20431;-85
2023/01/23 09:09:12;;;;;;;36.40;29.02;;;;;;;;;;4963581;28;20503;-86
2023/01/23 09:11:38;;;;;;;36.35;25.75;;;;;;;;;;4963617;28;20444;-86
2023/01/23 09:14:04;;;;;;;36.88;31.13;;;;;;;;;;4979045;28;20397;-79
2023/01/23 09:16:30;;;;;;;38.67;30.88;;;;;;;;;;4962964;28;20447;-79
2023/01/23 09:18:56;;;;;;;35.37;24.87;;;;;;;;;;4963805;28;20178;-80
2023/01/23 09:21:22;;;;;;;32.65;26.77;;;;;;;;;;4963366;28;20420;-79
2023/01/23 09:23:48;;;;;;;31.03;23.57;;;;;;;;;;4980076;28;20257;-80
2023/01/23 09:26:14;;;;;;;34.35;28.05;;;;;;;;;;4979238;28;20413;-80
2023/01/23 09:28:41;;;;;;;33.77;24.23;;;;;;;;;;4963650;28;20178;-79
2023/01/23 09:31:09;;;;;;;29.93;22.50;;;;;;;;;;4979551;28;20344;-84
2023/01/23 09:33:35;;;;;;;32.47;24.00;;;;;;;;;;4979521;28;20182;-84
2023/01/23 09:36:02;;;;;;;33.00;24.30;;;;;;;;;;4979704;28;20170;-84
2023/01/23 09:38:28;;;;;;;30.63;22.27;;;;;;;;;;4979483;28;20178;-84
2023/01/23 09:40:58;;;;;;;34.17;23.33;;;;;;;;;;4979298;28;20181;-84
2023/01/23 09:43:30;;;;;;;33.87;23.20;;;;;;;;;;4979417;28;20179;-84
2023/01/23 09:46:11;;;;;;;33.37;24.13;;;;;;;;;;4979586;28;20201;-84
2023/01/23 09:48:37;;;;;;;33.05;23.83;;;;;;;;;;4979160;28;20444;-84
2023/01/23 09:51:12;;;;;;;35.92;29.48;;;;;;;;;;4978258;28;20447;-84
2023/01/23 09:53:39;;;;;;;34.37;23.63;;;;;;;;;;4979181;28;20188;-84
2023/01/23 09:56:13;;;;;;;31.58;26.67;;;;;;;;;;4962962;28;20463;-84
2023/01/23 09:58:43;;;;;;;33.87;24.07;;;;;;;;;;4979111;28;20257;-84
2023/01/23 10:01:12;;;;;;;34.22;29.05;;;;;;;;;;4978133;28;20515;-84
2023/01/23 10:03:38;;;;;;;34.50;27.90;;;;;;;;;;4978574;28;20421;-86
2023/01/23 10:06:22;;;;;;;37.47;27.90;;;;;;;;;;4978671;28;20416;-86
2023/01/23 10:08:51;;;;;;;33.10;27.92;;;;;;;;;;4978323;28;20412;-85
2023/01/23 10:11:27;;;;;;;29.57;23.53;;;;;;;;;;4977433;28;20238;-86
2023/01/23 10:13:53;;;;;;;35.20;27.20;;;;;;;;;;4971593;28;20423;-85
2023/01/23 10:16:25;;;;;;;34.25;28.48;;;;;;;;;;4970259;28;20409;-86
2023/01/23 10:19:06;;;;;;;33.95;28.48;;;;;;;;;;4970942;28;20406;-86
2023/01/23 10:21:44;;;;;;;30.45;27.15;;;;;;;;;;4991552;28;20407;-86
2023/01/23 10:24:35;;;;;;;32.70;27.67;;;;;;;;;;4987879;28;20503;-86
2023/01/23 10:27:21;;;;;;;32.85;28.38;;;;;;;;;;4993464;28;20422;-86
2023/01/23 10:29:58;;;;;;;32.83;27.52;;;;;;;;;;4975080;28;20412;-86
2023/01/23 10:32:26;;;;;;;31.55;28.15;;;;;;;;;;4986043;28;20436;-86
2023/01/23 10:34:58;;;;;;;32.83;26.67;;;;;;;;;;4992326;28;20411;-85
2023/01/23 10:37:27;;;;;;;192.80;42.75;;;;;;;;;;4986399;28;20401;-87
2023/01/23 10:40:06;;;;;;;40.20;28.95;;;;;;;;;;4957967;28;20403;-86
2023/01/23 10:42:32;;;;;;;82.00;32.72;;;;;;;;;;4958057;28;20473;-86
2023/01/23 10:44:58;;;;;;;41.60;28.85;;;;;;;;;;4957931;28;20426;-86
2023/01/23 10:47:28;;;;;;;34.13;28.58;;;;;;;;;;4958115;28;20414;-86
2023/01/23 10:49:54;;;;;;;37.73;28.10;;;;;;;;;;4958158;28;20446;-85
2023/01/23 10:52:56;;;;;;;32.17;27.67;;;;;;;;;;4974960;28;20434;-86
2023/01/23 10:55:27;;;;;;;31.92;28.35;;;;;;;;;;4896831;29;20424;-84
2023/01/23 10:57:55;;;;;;;64.60;33.27;;;;;;;;;;4944884;28;20418;-84
2023/01/23 11:00:33;;;;;;;141.63;40.33;;;;;;;;;;4957466;28;20414;-84
2023/01/23 11:03:17;;;;;;;65.78;32.50;;;;;;;;;;4957339;28;20490;-84
2023/01/23 11:05:44;;;;;;;51.35;30.98;;;;;;;;;;4957753;28;20481;-84
2023/01/23 11:08:29;;;;;;;36.25;29.92;;;;;;;;;;4941452;28;20445;-84
2023/01/23 11:11:15;;;;;;;35.83;30.83;;;;;;;;;;4974326;28;20430;-86
2023/01/23 11:13:45;;;;;;;45.90;26.73;;;;;;;;;;4957521;28;20179;-86
2023/01/23 11:16:15;;;;;;;155.37;35.23;;;;;;;;;;4957858;28;20187;-86
2023/01/23 11:18:42;;;;;;;153.93;34.67;;;;;;;;;;4975140;28;20419;-86
2023/01/23 11:21:29;;;;;;;38.05;28.27;;;;;;;;;;4974291;28;20493;-86
2023/01/23 11:24:13;;;;;;;107.57;34.20;;;;;;;;;;4956612;28;20425;-85
2023/01/23 11:26:39;;;;;;;123.00;35.15;;;;;;;;;;4957116;28;20456;-81
2023/01/23 11:29:22;;;;;;;108.15;34.05;;;;;;;;;;4957190;28;20415;-80
2023/01/23 11:31:55;;;;;;;36.38;27.20;;;;;;;;;;4957436;28;20434;-80
2023/01/23 11:34:23;;;;;;;67.90;31.17;;;;;;;;;;4957479;28;20442;-80
2023/01/23 11:37:08;;;;;;;125.90;36.87;;;;;;;;;;4956969;28;20456;-80
2023/01/23 11:39:50;;;;;;;29.43;26.23;;;;;;;;;;4956043;28;20406;-80
2023/01/23 11:42:18;;;;;;;30.75;26.05;;;;;;;;;;4974075;28;20420;-80
2023/01/23 11:44:45;;;;;;;29.08;25.98;;;;;;;;;;4957061;28;20414;-80
2023/01/23 11:47:14;;;;;;;29.27;26.25;;;;;;;;;;4957022;28;20429;-80
2023/01/23 11:49:49;;;;;;;30.13;25.85;;;;;;;;;;4956969;28;20466;-80
2023/01/23 11:52:15;;;;;;;29.38;26.45;;;;;;;;;;4956713;28;20425;-80
2023/01/23 11:54:41;;;;;;;28.00;25.23;;;;;;;;;;4956962;28;20418;-80
2023/01/23 11:57:22;;;;;;;28.15;25.25;;;;;;;;;;4957284;28;20406;-80
2023/01/23 12:00:07;;;;;;;27.27;21.13;;;;;;;;;;4957853;28;20175;-84
2023/01/23 12:02:52;;;;;;;26.17;23.02;;;;;;;;;;4964290;28;20442;-85
2023/01/23 12:05:23;;;;;;;28.08;25.10;;;;;;;;;;4967344;28;20424;-85
2023/01/23 12:07:59;;;;;;;28.50;25.60;;;;;;;;;;4967230;28;20409;-84
2023/01/23 12:10:34;;;;;;;27.48;24.77;;;;;;;;;;4967208;28;20417;-84
2023/01/23 12:13:13;;;;;;;26.08;23.27;;;;;;;;;;4984967;28;20405;-85
2023/01/23 12:15:49;;;;;;;28.20;25.20;;;;;;;;;;4966875;28;20409;-85
2023/01/23 12:18:20;;;;;;;27.42;24.55;;;;;;;;;;4964091;28;20401;-85
2023/01/23 12:20:58;;;;;;;28.45;25.45;;;;;;;;;;4959369;28;20490;-86
2023/01/23 12:23:44;;;;;;;28.60;25.80;;;;;;;;;;4956813;28;20520;-87
2023/01/23 12:26:10;;;;;;;30.13;27.00;;;;;;;;;;4956783;28;20541;-86
2023/01/23 12:28:36;;;;;;;29.42;26.42;;;;;;;;;;4956709;28;20410;-86
2023/01/23 12:31:26;;;;;;;28.30;25.43;;;;;;;;;;4956613;28;20433;-86
2023/01/23 12:34:01;;;;;;;29.67;26.65;;;;;;;;;;4956665;28;20425;-80
2023/01/23 12:36:43;;;;;;;29.02;26.13;;;;;;;;;;4973638;28;20397;-80
2023/01/23 12:39:19;;;;;;;29.83;26.73;;;;;;;;;;4956532;28;20409;-80
2023/01/23 12:41:48;;;;;;;29.38;26.38;;;;;;;;;;4956487;28;20464;-80
2023/01/23 12:44:14;;;;;;;29.27;26.27;;;;;;;;;;4956432;28;20437;-80
2023/01/23 12:46:52;;;;;;;31.00;27.92;;;;;;;;;;4956699;28;20402;-80
2023/01/23 12:49:21;;;;;;;28.88;25.98;;;;;;;;;;4956249;28;20585;-84
2023/01/23 12:51:52;;;;;;;29.15;26.23;;;;;;;;;;4958049;28;20520;-84
2023/01/23 12:54:24;;;;;;;30.48;27.30;;;;;;;;;;4977258;28;20402;-84
2023/01/23 12:56:50;;;;;;;29.30;26.30;;;;;;;;;;4960027;28;20413;-84
2023/01/23 12:59:28;;;;;;;30.02;26.92;;;;;;;;;;4960485;28;20414;-84
2023/01/23 13:01:58;;;;;;;29.45;26.45;;;;;;;;;;4959874;28;20410;-84
2023/01/23 13:04:33;;;;;;;29.97;27.07;;;;;;;;;;4959835;28;20425;-84
2023/01/23 13:07:17;;;;;;;29.95;26.95;;;;;;;;;;4959776;28;20418;-85
2023/01/23 13:10:02;;;;;;;29.13;26.13;;;;;;;;;;4959566;28;20426;-85
2023/01/23 13:12:28;;;;;;;29.75;26.75;;;;;;;;;;4959571;28;20496;-84
2023/01/23 13:15:13;;;;;;;28.33;25.55;;;;;;;;;;4976935;28;20413;-84
2023/01/23 13:17:47;;;;;;;28.58;25.60;;;;;;;;;;4959454;28;20382;-85
2023/01/23 13:23:17;;;;;;;27.45;24.75;;;;;;;;;;4976887;28;20405;-80
2023/01/23 13:25:43;;;;;;;26.60;24.10;;;;;;;;;;4959269;28;20465;-81
2023/01/23 13:28:26;;;;;;;27.35;24.42;;;;;;;;;;4943899;28;20422;-80
2023/01/23 13:30:59;;;;;;;27.10;24.40;;;;;;;;;;4959132;28;20548;-80
2023/01/23 13:33:28;;;;;;;27.67;24.77;;;;;;;;;;4959511;28;20410;-80
2023/01/23 13:35:58;;;;;;;27.10;24.20;;;;;;;;;;4959419;28;20417;-80
2023/01/23 13:38:33;;;;;;;25.10;22.60;;;;;;;;;;4959545;28;20454;-80
2023/01/23 13:41:07;;;;;;;22.70;20.27;;;;;;;;;;4959186;28;20486;-80
2023/01/23 13:43:51;;;;;;;22.13;19.83;;;;;;;;;;4959371;28;20411;-80
2023/01/23 13:46:36;;;;;;;22.80;20.40;;;;;;;;;;4959137;28;20414;-80
2023/01/23 13:51:53;;;;;;;21.67;19.48;;;;;;;;;;4976259;28;20474;-80
2023/01/23 13:57:09;;;;;;;22.02;19.73;;;;;;;;;;4976436;28;20505;-87
2023/01/23 13:59:39;;;;;;;22.13;19.98;;;;;;;;;;4958942;28;20402;-86
2023/01/23 14:05:12;;;;;;;22.30;19.98;;;;;;;;;;4976240;28;20469;-86
2023/01/23 14:07:41;;;;;;;23.00;20.58;;;;;;;;;;4958749;28;20414;-86
2023/01/23 14:10:15;;;;;;;22.58;20.38;;;;;;;;;;4958829;28;20414;-86
2023/01/23 14:12:41;;;;;;;22.23;20.02;;;;;;;;;;4958577;28;20434;-80
2023/01/23 14:18:22;;;;;;;21.95;19.75;;;;;;;;;;4976194;28;20409;-80
2023/01/23 14:20:50;;;;;;;21.67;19.47;;;;;;;;;;4958859;28;20422;-80
2023/01/23 14:23:36;;;;;;;22.63;20.37;;;;;;;;;;4942966;28;20504;-80
2023/01/23 14:26:04;;;;;;;20.50;18.50;;;;;;;;;;4958221;28;20418;-80
2023/01/23 14:28:30;;;;;;;21.77;19.60;;;;;;;;;;4958320;28;20413;-80
2023/01/23 14:31:07;;;;;;;21.53;19.43;;;;;;;;;;4958384;28;20438;-80
2023/01/23 14:33:39;;;;;;;20.90;18.88;;;;;;;;;;4975450;28;20413;-80
2023/01/23 14:36:06;;;;;;;21.00;19.00;;;;;;;;;;4958200;28;20402;-80
2023/01/23 14:38:33;;;;;;;21.50;19.40;;;;;;;;;;4958172;28;20440;-81
2023/01/23 14:41:02;;;;;;;20.83;18.90;;;;;;;;;;4958367;28;20446;-80
2023/01/23 14:43:29;;;;;;;21.90;19.70;;;;;;;;;;4958104;28;20410;-80
2023/01/23 14:46:06;;;;;;;22.15;19.88;;;;;;;;;;4942283;28;20432;-87